Time;durP1;ratioP1;P1;durP2;ratioP2;P2;SDS_P1;SDS_P2;PMS_P1;PMS_P2;Temp;Humidity;BMP_temperature;BMP_pressure;BME280_temperature;BME280_humidity;BME280_pressure;Samples;Min_cycle;Max_cycle;Signal;HPM_P1;HPM_P2
2023/08/20 00:00:52;;;;;;;5.90;2.05;;;;;;;17.05;100.00;101860.06;5024066;28;20033;-47
2023/08/20 00:03:17;;;;;;;6.70;2.22;;;;;;;17.47;100.00;101937.19;5018658;28;20044;-47
2023/08/20 00:05:43;;;;;;;6.22;1.80;;;;;;;17.15;100.00;101875.59;5012587;28;20040;-46
2023/08/20 00:08:08;;;;;;;5.18;1.90;;;;;;;17.02;100.00;101846.91;4994613;28;20508;-45
2023/08/20 00:10:34;;;;;;;4.78;2.00;;;;;;;17.59;100.00;101937.56;4995120;28;20037;-44
2023/08/20 00:12:59;;;;;;;4.28;1.75;;;;;;;17.62;100.00;101945.41;5012520;28;20029;-47
2023/08/20 00:15:27;;;;;;;6.10;2.53;;;;;;;17.53;100.00;101912.97;4995168;28;20041;-45
2023/08/20 00:17:53;;;;;;;3.15;1.25;;;;;;;17.20;100.00;101852.28;5012590;28;20042;-44
2023/08/20 00:20:19;;;;;;;6.25;1.80;;;;;;;17.49;100.00;101914.00;4994728;28;20048;-45
2023/08/20 00:22:46;;;;;;;5.65;1.83;;;;;;;17.45;100.00;101911.47;5011335;28;20050;-49
2023/08/20 00:25:12;;;;;;;6.43;2.20;;;;;;;17.59;100.00;101936.69;4994558;28;20091;-50
2023/08/20 00:27:41;;;;;;;7.78;1.98;;;;;;;17.58;100.00;101945.59;5012521;28;20508;-44
2023/08/20 00:30:08;;;;;;;6.47;2.00;;;;;;;17.11;100.00;101862.47;5012134;28;20029;-46
2023/08/20 00:32:33;;;;;;;10.57;2.47;;;;;;;17.53;100.00;101939.59;4994906;28;20033;-42
2023/08/20 00:34:59;;;;;;;7.40;1.80;;;;;;;17.50;100.00;101931.72;5012194;28;20084;-46
2023/08/20 00:37:25;;;;;;;8.60;2.50;;;;;;;17.63;100.00;101948.94;4994923;28;20133;-44
2023/08/20 00:39:50;;;;;;;6.57;1.58;;;;;;;17.46;100.00;101920.34;4993365;28;20045;-42
2023/08/20 00:42:16;;;;;;;7.45;2.40;;;;;;;17.38;100.00;101899.41;4994517;28;20038;-46
2023/08/20 00:44:44;;;;;;;11.32;2.00;;;;;;;17.86;100.00;101972.75;5012184;28;20045;-45
2023/08/20 00:47:10;;;;;;;9.10;2.33;;;;;;;17.39;100.00;101890.50;5012291;28;20049;-44
2023/08/20 00:49:35;;;;;;;8.13;2.58;;;;;;;17.96;100.00;101976.72;4994345;28;20513;-46
2023/08/20 00:52:01;;;;;;;7.82;2.53;;;;;;;17.78;100.00;101949.09;4994774;28;20111;-44
2023/08/20 00:54:28;;;;;;;8.90;2.42;;;;;;;17.37;100.00;101884.34;4988258;28;20045;-44
2023/08/20 00:56:53;;;;;;;7.68;1.88;;;;;;;17.44;100.00;101911.56;4975011;28;20066;-44
2023/08/20 00:59:18;;;;;;;6.82;1.85;;;;;;;17.30;100.00;101906.00;4975554;28;20097;-44
2023/08/20 01:01:44;;;;;;;10.00;2.10;;;;;;;17.69;100.00;101984.13;4992363;28;20030;-42
2023/08/20 01:04:09;;;;;;;7.45;2.53;;;;;;;17.63;100.00;101989.72;4974708;28;20066;-48
2023/08/20 01:06:59;;;;;;;7.57;2.17;;;;;;;17.60;100.00;101994.34;4992691;28;20494;-47
2023/08/20 01:09:48;;;;;;;12.20;2.20;;;;;;;17.59;100.00;101997.91;4991881;28;20046;-43
2023/08/20 01:12:14;;;;;;;13.52;2.50;;;;;;;17.15;100.00;101918.16;4974872;28;20026;-46
2023/08/20 01:14:40;;;;;;;9.32;1.92;;;;;;;17.63;100.00;102007.53;4974765;28;20026;-44
2023/08/20 01:17:05;;;;;;;7.68;2.05;;;;;;;17.24;100.00;101914.22;4975210;28;20038;-44
2023/08/20 01:19:31;;;;;;;6.32;2.20;;;;;;;17.60;100.00;101986.34;4993745;28;20478;-45
2023/08/20 01:22:21;;;;;;;10.50;2.40;;;;;;;17.53;100.00;101980.38;4996232;28;20539;-47
2023/08/20 01:25:11;;;;;;;8.00;2.22;;;;;;;17.46;100.00;101986.88;4995882;28;20402;-44
2023/08/20 01:28:13;;;;;;;4.47;2.07;;;;;;;17.38;100.00;101978.38;4995541;28;20117;-42
2023/08/20 01:30:39;;;;;;;9.02;2.25;;;;;;;16.80;100.00;101889.50;4995893;28;20293;-44
2023/08/20 01:33:05;;;;;;;7.45;2.33;;;;;;;17.06;100.00;101966.41;4978593;28;20076;-50
2023/08/20 01:35:31;;;;;;;8.30;2.38;;;;;;;17.13;100.00;101978.53;4977873;28;20038;-47
2023/08/20 01:37:56;;;;;;;6.45;2.58;;;;;;;17.11;100.00;101979.53;4996008;28;20045;-43
2023/08/20 01:40:21;;;;;;;11.90;2.60;;;;;;;17.03;100.00;101987.81;4996122;28;20445;-43
2023/08/20 01:42:47;;;;;;;7.18;2.55;;;;;;;16.55;100.00;101904.75;4995259;28;20478;-44
2023/08/20 01:45:12;;;;;;;9.45;2.97;;;;;;;16.59;100.00;101923.16;4995706;28;20046;-47
2023/08/20 01:47:37;;;;;;;9.25;2.60;;;;;;;16.60;100.00;101930.22;4978494;28;20042;-46
2023/08/20 01:50:03;;;;;;;8.15;2.58;;;;;;;16.83;100.00;101978.00;4995715;28;20085;-44
2023/08/20 01:52:31;;;;;;;9.85;2.80;;;;;;;16.76;100.00;101972.97;4995819;28;20493;-45
2023/08/20 01:54:57;;;;;;;10.80;2.53;;;;;;;16.66;100.00;101967.19;4995785;28;20250;-43
2023/08/20 01:57:23;;;;;;;8.45;2.60;;;;;;;16.68;100.00;101967.97;4978187;28;20092;-47
2023/08/20 01:59:48;;;;;;;9.57;2.25;;;;;;;16.64;100.00;101961.03;4995640;28;20121;-42
2023/08/20 02:02:13;;;;;;;8.07;2.80;;;;;;;16.16;100.00;101880.56;4995349;28;20412;-47
2023/08/20 02:04:39;;;;;;;7.57;2.22;;;;;;;16.09;100.00;101876.41;4994935;28;20049;-46
2023/08/20 02:07:04;;;;;;;8.93;2.35;;;;;;;16.08;100.00;101877.34;4995607;28;20035;-43
2023/08/20 02:09:30;;;;;;;6.75;2.40;;;;;;;15.12;100.00;101716.41;4978004;28;20038;-44
2023/08/20 02:11:55;;;;;;;6.93;2.50;;;;;;;16.17;100.00;101900.91;4995618;28;20038;-48
2023/08/20 02:14:20;;;;;;;8.07;2.53;;;;;;;16.51;100.00;101967.75;4977538;28;20039;-43
2023/08/20 02:16:46;;;;;;;8.77;2.67;;;;;;;16.46;100.00;101963.53;5012366;28;20088;-48
2023/08/20 02:19:11;;;;;;;9.40;2.50;;;;;;;16.47;100.00;101973.22;5014956;28;20048;-43
2023/08/20 02:21:37;;;;;;;11.48;2.92;;;;;;;15.75;100.00;101856.47;5015009;28;20038;-45
2023/08/20 02:24:02;;;;;;;11.52;3.33;;;;;;;15.94;100.00;101895.56;5013979;28;20057;-43
2023/08/20 02:26:28;;;;;;;5.50;2.30;;;;;;;15.93;100.00;101899.19;5014745;28;20036;-47
2023/08/20 02:28:53;;;;;;;7.90;2.60;;;;;;;15.91;100.00;101893.03;5014602;28;20049;-44
2023/08/20 02:31:18;;;;;;;7.25;2.35;;;;;;;16.17;100.00;101940.75;5013307;28;20493;-46
2023/08/20 02:33:44;;;;;;;9.05;2.55;;;;;;;16.34;100.00;101963.06;4961018;28;20034;-50
2023/08/20 02:36:09;;;;;;;9.05;2.80;;;;;;;16.18;100.00;101953.97;4994646;28;20508;-45
2023/08/20 02:38:35;;;;;;;10.20;3.05;;;;;;;16.07;100.00;101918.97;4994995;28;20031;-47
2023/08/20 02:41:01;;;;;;;11.50;3.35;;;;;;;16.34;100.00;101975.50;4994791;28;20497;-45
2023/08/20 02:43:26;;;;;;;7.97;2.70;;;;;;;16.35;100.00;101974.56;4976932;28;20042;-45
2023/08/20 02:45:51;;;;;;;11.55;3.40;;;;;;;16.32;100.00;101982.66;4994617;28;20185;-46
2023/08/20 02:48:17;;;;;;;9.50;3.20;;;;;;;16.25;100.00;101975.84;4994178;28;20038;-45
2023/08/20 02:50:42;;;;;;;9.82;2.83;;;;;;;16.45;100.00;101991.91;4995075;28;20034;-45
2023/08/20 02:53:07;;;;;;;5.35;2.67;;;;;;;16.54;100.00;101996.91;4994436;28;20042;-47
2023/08/20 02:55:35;;;;;;;10.80;3.10;;;;;;;16.31;100.00;101952.56;4994571;28;20429;-49
2023/08/20 02:58:00;;;;;;;8.30;3.03;;;;;;;15.80;100.00;101856.28;4994502;28;20117;-46
2023/08/20 03:00:26;;;;;;;11.13;3.05;;;;;;;16.67;100.00;102002.59;4977123;28;20073;-45
2023/08/20 03:02:51;;;;;;;13.60;3.25;;;;;;;16.16;100.00;101915.09;4993873;28;20034;-45
2023/08/20 03:05:17;;;;;;;14.55;3.35;;;;;;;16.70;100.00;102005.13;4993953;28;20038;-46
2023/08/20 03:07:42;;;;;;;13.27;2.88;;;;;;;16.71;100.00;101999.75;4994738;28;20058;-48
2023/08/20 03:10:08;;;;;;;8.00;2.63;;;;;;;16.64;100.00;101992.94;4994375;28;20035;-43
2023/08/20 03:12:33;;;;;;;10.25;2.47;;;;;;;16.71;100.00;102009.53;4994232;28;20038;-46
2023/08/20 03:15:02;;;;;;;11.07;3.17;;;;;;;16.28;100.00;101934.09;4994061;28;20566;-45
2023/08/20 03:17:28;;;;;;;14.00;2.85;;;;;;;16.12;100.00;101903.72;4994015;28;20505;-45
2023/08/20 03:19:58;;;;;;;7.95;2.95;;;;;;;16.69;100.00;102006.94;4994367;28;20046;-45
2023/08/20 03:22:24;;;;;;;9.80;2.87;;;;;;;16.69;100.00;102012.25;4975882;28;20357;-47
2023/08/20 03:24:50;;;;;;;7.85;2.80;;;;;;;16.32;100.00;101938.34;4993983;28;20062;-48
2023/08/20 03:27:16;;;;;;;7.35;2.83;;;;;;;16.65;100.00;102012.41;4976530;28;20058;-44
2023/08/20 03:29:41;;;;;;;11.68;3.00;;;;;;;15.88;100.00;101869.28;4993882;28;20061;-47
2023/08/20 03:32:06;;;;;;;9.93;2.83;;;;;;;16.20;100.00;101930.84;4993259;28;20042;-46
2023/08/20 03:34:32;;;;;;;9.30;2.60;;;;;;;16.50;100.00;101994.38;4993362;28;20500;-44
2023/08/20 03:36:57;;;;;;;9.52;2.58;;;;;;;16.43;100.00;102006.19;4983743;28;20038;-46
2023/08/20 03:39:22;;;;;;;8.07;2.78;;;;;;;16.27;100.00;101976.66;5013340;28;20087;-43
2023/08/20 03:41:49;;;;;;;9.52;3.03;;;;;;;16.09;100.00;101961.41;5012590;28;20094;-44
2023/08/20 03:44:14;;;;;;;11.18;3.53;;;;;;;16.29;100.00;101994.25;5012685;28;20053;-47
2023/08/20 03:46:40;;;;;;;9.23;2.75;;;;;;;16.27;100.00;101995.25;5013188;28;20030;-44
2023/08/20 03:49:05;;;;;;;9.85;2.80;;;;;;;16.25;100.00;101995.31;5013021;28;20038;-47
2023/08/20 03:51:30;;;;;;;8.73;2.60;;;;;;;16.23;100.00;102005.13;5013097;28;20049;-50
2023/08/20 03:53:56;;;;;;;12.00;2.70;;;;;;;16.01;100.00;101972.31;5009490;28;20112;-45
2023/08/20 03:56:21;;;;;;;8.98;3.25;;;;;;;15.88;100.00;101941.81;4976112;28;20433;-45
2023/08/20 03:58:46;;;;;;;8.73;2.72;;;;;;;16.26;100.00;102004.13;4993393;28;20057;-45
2023/08/20 04:01:11;;;;;;;13.25;3.53;;;;;;;16.24;100.00;102014.84;4993176;28;20039;-48
2023/08/20 04:03:37;;;;;;;11.02;3.75;;;;;;;16.22;100.00;102007.84;4992855;28;20509;-47
2023/08/20 04:06:02;;;;;;;8.32;3.28;;;;;;;16.21;100.00;102009.63;4975851;28;20031;-45
2023/08/20 04:08:28;;;;;;;10.45;3.10;;;;;;;15.92;100.00;101971.78;4975851;28;20466;-47
2023/08/20 04:10:54;;;;;;;8.45;2.90;;;;;;;15.73;100.00;101943.25;4975088;28;20034;-46
2023/08/20 04:13:19;;;;;;;11.38;3.28;;;;;;;16.17;100.00;102017.78;4992563;28;20034;-45
2023/08/20 04:15:45;;;;;;;12.07;3.05;;;;;;;16.10;100.00;102017.13;4993064;28;20030;-45
2023/08/20 04:18:10;;;;;;;9.63;3.05;;;;;;;15.65;100.00;101960.38;4992903;28;20405;-45
2023/08/20 04:20:36;;;;;;;10.85;2.83;;;;;;;15.98;100.00;102028.19;4992890;28;20181;-48
2023/08/20 04:23:01;;;;;;;10.40;3.00;;;;;;;15.92;100.00;102020.44;4992251;28;20501;-46
2023/08/20 04:25:27;;;;;;;8.35;2.90;;;;;;;15.42;100.00;101949.66;4959738;28;20053;-45
2023/08/20 04:27:52;;;;;;;11.52;3.22;;;;;;;15.39;100.00;101957.72;4992408;28;20030;-49
2023/08/20 04:30:17;;;;;;;9.57;3.33;;;;;;;15.35;100.00;101967.59;4992810;28;20049;-47
2023/08/20 04:32:43;;;;;;;8.25;3.35;;;;;;;15.26;100.00;101957.31;4992538;28;20229;-46
2023/08/20 04:35:08;;;;;;;9.52;2.78;;;;;;;15.73;100.00;102037.97;4992750;28;20056;-46
2023/08/20 04:37:34;;;;;;;10.43;3.28;;;;;;;15.70;100.00;102036.25;4992956;28;20631;-50
2023/08/20 04:39:59;;;;;;;11.05;2.90;;;;;;;15.70;100.00;102048.69;4992571;28;20034;-45
2023/08/20 04:42:24;;;;;;;7.32;2.90;;;;;;;15.67;100.00;102048.78;4992569;28;20046;-49
2023/08/20 04:44:50;;;;;;;12.57;3.40;;;;;;;15.40;100.00;102007.22;4992394;28;20406;-48
2023/08/20 04:47:15;;;;;;;14.10;3.40;;;;;;;15.62;100.00;102040.97;4990036;28;20034;-47
2023/08/20 04:49:40;;;;;;;10.18;3.65;;;;;;;15.71;100.00;102055.72;5012573;28;20092;-48
2023/08/20 04:52:06;;;;;;;8.00;3.33;;;;;;;15.72;100.00;102046.84;5011783;28;20038;-47
2023/08/20 04:54:31;;;;;;;13.98;3.97;;;;;;;15.30;100.00;101971.31;5012185;28;20041;-43
2023/08/20 04:56:56;;;;;;;10.23;3.88;;;;;;;15.73;100.00;102048.59;5011993;28;20502;-45
2023/08/20 04:59:22;;;;;;;9.75;3.80;;;;;;;15.63;100.00;102025.91;5012049;28;20047;-47
2023/08/20 05:01:47;;;;;;;10.52;3.13;;;;;;;15.28;100.00;101966.06;5010390;28;20060;-47
2023/08/20 05:04:13;;;;;;;10.95;3.42;;;;;;;15.51;100.00;102010.41;5011741;28;20433;-45
2023/08/20 05:06:38;;;;;;;8.82;3.83;;;;;;;15.80;100.00;102041.25;5012036;28;20160;-45
2023/08/20 05:09:03;;;;;;;10.60;3.75;;;;;;;15.51;100.00;102002.44;5012144;28;20038;-44
2023/08/20 05:11:31;;;;;;;15.68;3.88;;;;;;;15.80;100.00;102057.19;4994403;28;20424;-45
2023/08/20 05:13:56;;;;;;;9.55;3.50;;;;;;;15.62;100.00;102040.97;4994027;28;20116;-47
2023/08/20 05:16:22;;;;;;;11.57;3.20;;;;;;;15.70;100.00;102049.53;5011837;28;20073;-44
2023/08/20 05:18:47;;;;;;;11.40;4.00;;;;;;;15.73;100.00;102052.06;5006978;28;20137;-48
2023/08/20 05:21:13;;;;;;;12.85;4.15;;;;;;;15.79;100.00;102055.47;4992558;28;20054;-46
2023/08/20 05:23:42;;;;;;;10.20;3.92;;;;;;;15.46;100.00;101994.63;4991970;28;20474;-43
2023/08/20 05:26:07;;;;;;;11.60;4.30;;;;;;;15.89;100.00;102063.03;4992521;28;20034;-44
2023/08/20 05:28:34;;;;;;;10.48;3.53;;;;;;;15.95;100.00;102054.00;4975034;28;20084;-49
2023/08/20 05:30:59;;;;;;;14.68;4.68;;;;;;;15.97;100.00;102058.31;4974760;28;20405;-46
2023/08/20 05:33:25;;;;;;;11.95;3.85;;;;;;;15.94;100.00;102042.50;4992137;28;20101;-46
2023/08/20 05:35:50;;;;;;;13.82;4.28;;;;;;;16.05;100.00;102069.53;4991790;28;20038;-45
2023/08/20 05:38:16;;;;;;;10.45;4.13;;;;;;;16.04;100.00;102041.25;4975272;28;20039;-44
2023/08/20 05:40:41;;;;;;;13.93;4.57;;;;;;;16.13;100.00;102027.66;4992270;28;20386;-46
2023/08/20 05:43:07;;;;;;;13.52;5.13;;;;;;;16.28;100.00;102043.03;4991792;28;20038;-47
2023/08/20 05:45:32;;;;;;;19.05;6.10;;;;;;;16.36;100.00;102023.25;4992060;28;20042;-45
2023/08/20 05:47:57;;;;;;;11.98;4.20;;;;;;;16.55;100.00;102025.19;4974810;28;20113;-46
2023/08/20 05:50:23;;;;;;;15.25;4.38;;;;;;;16.61;100.00;102009.00;4991851;28;20089;-47
2023/08/20 05:52:48;;;;;;;8.60;3.97;;;;;;;16.50;100.00;101976.63;4974392;28;20089;-46
2023/08/20 05:55:14;;;;;;;11.45;4.35;;;;;;;17.04;100.00;102047.22;4974952;28;20060;-51
2023/08/20 05:57:40;;;;;;;10.95;3.90;;;;;;;17.02;100.00;102025.97;4974732;28;20045;-44
2023/08/20 06:00:06;;;;;;;11.35;3.75;;;;;;;16.82;100.00;101976.25;4974679;28;20060;-45
2023/08/20 06:02:32;;;;;;;12.05;3.85;;;;;;;17.24;100.00;102026.88;4974139;28;20041;-47
2023/08/20 06:04:57;;;;;;;10.70;3.38;;;;;;;17.44;100.00;102042.00;4974956;28;20043;-46
2023/08/20 06:07:23;;;;;;;13.95;3.60;;;;;;;17.10;100.00;101964.50;4977635;28;20390;-45
2023/08/20 06:09:49;;;;;;;11.38;3.28;;;;;;;17.23;100.00;101974.56;4995299;28;20125;-44
2023/08/20 06:12:16;;;;;;;11.13;3.28;;;;;;;17.73;100.00;102038.13;4978094;28;20038;-46
2023/08/20 06:14:41;;;;;;;9.75;3.40;;;;;;;17.88;100.00;102054.31;4977697;28;20367;-49
2023/08/20 06:17:06;;;;;;;11.35;3.55;;;;;;;17.87;100.00;102019.75;4995312;28;20045;-45
2023/08/20 06:19:31;;;;;;;10.32;3.65;;;;;;;18.16;100.00;102053.09;4995100;28;20478;-44
2023/08/20 06:21:58;;;;;;;9.07;3.30;;;;;;;17.85;100.00;101979.88;4995006;28;20038;-46
2023/08/20 06:24:23;;;;;;;8.95;2.90;;;;;;;17.92;100.00;101980.47;4994585;28;20061;-47
2023/08/20 06:26:49;;;;;;;9.50;2.80;;;;;;;18.06;100.00;101982.50;4995092;28;20034;-46
2023/08/20 06:29:14;;;;;;;11.70;3.80;;;;;;;18.33;100.00;102022.06;4995046;28;20165;-51
2023/08/20 06:31:40;;;;;;;8.80;2.67;;;;;;;18.61;100.00;102044.84;4994878;28;20394;-47
2023/08/20 06:34:05;;;;;;;8.23;2.80;;;;;;;18.75;100.00;102059.25;4994424;28;20389;-48
2023/08/20 06:36:30;;;;;;;6.85;2.50;;;;;;;18.87;100.00;102068.47;4977570;28;20110;-45
2023/08/20 06:38:56;;;;;;;8.40;2.92;;;;;;;18.96;100.00;102068.06;4994757;28;20109;-45
2023/08/20 06:41:21;;;;;;;9.85;2.40;;;;;;;19.07;100.00;102071.94;4993939;28;20097;-47
2023/08/20 06:43:46;;;;;;;9.40;3.35;;;;;;;19.17;100.00;102077.69;4994494;28;20074;-45
2023/08/20 06:46:12;;;;;;;7.60;2.65;;;;;;;19.30;100.00;102061.94;4994796;28;20093;-45
2023/08/20 06:48:37;;;;;;;11.32;2.80;;;;;;;19.31;100.00;102056.53;4994509;28;20040;-45
2023/08/20 06:51:15;;;;;;;12.27;2.65;;;;;;;19.43;100.00;102071.97;4994494;28;20045;-45
2023/08/20 06:53:41;;;;;;;11.27;2.65;;;;;;;19.00;100.00;101993.09;4994309;28;20053;-45
2023/08/20 06:56:11;;;;;;;7.82;2.88;;;;;;;19.62;100.00;102082.59;4977128;28;20030;-49
2023/08/20 06:58:38;;;;;;;7.63;2.53;;;;;;;19.64;100.00;102060.19;4994434;28;20540;-48
2023/08/20 07:01:12;;;;;;;7.43;1.88;;;;;;;19.49;100.00;102012.06;4980015;28;20394;-47
2023/08/20 07:03:40;;;;;;;8.65;2.55;;;;;;;19.59;100.00;102023.97;5014024;28;20046;-46
2023/08/20 07:06:06;;;;;;;7.90;2.35;;;;;;;19.98;100.00;102080.72;4996391;28;20404;-47
2023/08/20 07:08:31;;;;;;;10.60;2.60;;;;;;;19.78;100.00;102026.59;5014112;28;20033;-47
2023/08/20 07:10:57;;;;;;;9.15;2.25;;;;;;;19.93;100.00;102032.00;5013723;28;20083;-44
2023/08/20 07:13:23;;;;;;;8.70;2.70;;;;;;;20.30;100.00;102065.69;5012862;28;20038;-48
2023/08/20 07:15:48;;;;;;;9.05;2.38;;;;;;;20.58;100.00;102103.38;5013765;28;20057;-49
2023/08/20 07:18:14;;;;;;;9.90;2.88;;;;;;;20.79;100.00;102122.75;5012849;28;20065;-51
2023/08/20 07:20:41;;;;;;;9.82;3.80;;;;;;;21.06;100.00;102115.00;5013764;28;20133;-52
2023/08/20 07:23:07;;;;;;;8.57;2.45;;;;;;;20.90;100.00;102058.78;5013720;28;20033;-50
2023/08/20 07:25:32;;;;;;;6.20;1.98;;;;;;;21.20;100.00;102057.09;5013705;28;20065;-46
2023/08/20 07:27:59;;;;;;;9.93;2.53;;;;;;;21.93;100.00;102129.66;5013501;28;20042;-49
2023/08/20 07:30:27;;;;;;;11.30;2.40;;;;;;;22.14;100.00;102106.91;5012549;28;20045;-50
2023/08/20 07:32:52;;;;;;;7.88;1.90;;;;;;;22.71;100.00;102130.19;5008122;28;20035;-51
2023/08/20 07:35:18;;;;;;;9.13;1.83;;;;;;;23.22;100.00;102146.63;4976099;28;20045;-47
2023/08/20 07:37:43;;;;;;;9.05;2.58;;;;;;;23.22;100.00;102100.97;4993381;28;20042;-43
2023/08/20 07:40:09;;;;;;;7.47;2.60;;;;;;;23.64;100.00;102100.00;4991680;28;20042;-45
2023/08/20 07:42:36;;;;;;;8.30;2.38;;;;;;;24.39;100.00;102171.94;4993040;28;20478;-48
2023/08/20 07:45:02;;;;;;;8.57;3.00;;;;;;;24.15;100.00;102114.41;4993777;28;20046;-47
2023/08/20 07:47:28;;;;;;;6.35;2.67;;;;;;;24.49;100.00;102117.34;4993440;28;20449;-45
2023/08/20 07:49:54;;;;;;;7.63;2.72;;;;;;;24.37;100.00;102075.13;4992976;28;20038;-47
2023/08/20 07:52:19;;;;;;;8.75;2.20;;;;;;;24.86;100.00;102121.00;4993314;28;20080;-45
2023/08/20 07:54:45;;;;;;;8.23;1.98;;;;;;;25.40;100.00;102132.28;4993159;28;20481;-48
2023/08/20 07:57:10;;;;;;;9.40;2.85;;;;;;;25.70;100.00;102167.78;4993561;28;20039;-46
2023/08/20 07:59:36;;;;;;;6.45;2.58;;;;;;;25.78;100.00;102183.38;4993517;28;20113;-46
2023/08/20 08:02:01;;;;;;;6.55;2.15;;;;;;;26.05;100.00;102170.50;4975796;28;20030;-44
2023/08/20 08:04:27;;;;;;;6.68;2.22;;;;;;;26.17;100.00;102158.81;4982954;28;20061;-48
2023/08/20 08:06:52;;;;;;;8.50;2.20;;;;;;;26.64;100.00;102165.03;5012859;28;20033;-47
2023/08/20 08:09:31;;;;;;;5.18;1.83;;;;;;;26.70;100.00;102153.75;5012864;28;20033;-48
2023/08/20 08:11:58;;;;;;;8.68;2.10;;;;;;;26.92;100.00;102152.91;5012989;28;20075;-49
2023/08/20 08:14:23;;;;;;;7.75;1.95;;;;;;;27.23;100.00;102161.09;5012419;28;20303;-46
2023/08/20 08:16:50;;;;;;;8.98;2.17;;;;;;;27.35;100.00;102210.59;5012804;28;20080;-49
2023/08/20 08:19:15;;;;;;;5.88;2.05;;;;;;;27.27;100.00;102161.72;4995396;28;20042;-52
2023/08/20 08:21:41;;;;;;;6.38;2.40;;;;;;;27.38;100.00;102177.91;4993801;28;20488;-48
2023/08/20 08:24:07;;;;;;;5.68;1.70;;;;;;;27.50;100.00;102162.56;4994396;28;20123;-48
2023/08/20 08:26:34;;;;;;;5.03;1.80;;;;;;;27.38;100.00;102177.91;4995021;28;20541;-49
2023/08/20 08:28:59;;;;;;;4.28;1.67;;;;;;;27.45;100.00;102202.66;5011966;28;20390;-46
2023/08/20 08:31:24;;;;;;;6.68;1.85;;;;;;;27.73;100.00;102199.41;5012526;28;20033;-48
2023/08/20 08:33:50;;;;;;;6.60;2.20;;;;;;;27.84;100.00;102164.19;5011850;28;20049;-46
2023/08/20 08:36:16;;;;;;;5.90;1.80;;;;;;;28.23;100.00;102227.63;4992633;28;20041;-45
2023/08/20 08:38:42;;;;;;;5.15;1.50;;;;;;;28.25;100.00;102179.66;4993017;28;20040;-48
2023/08/20 08:41:11;;;;;;;6.43;3.03;;;;;;;28.65;100.00;102225.84;4992621;28;20548;-47
2023/08/20 08:43:38;;;;;;;5.43;2.13;;;;;;;28.49;100.00;102161.25;4992122;28;20042;-50
2023/08/20 08:46:06;;;;;;;7.97;2.10;;;;;;;28.75;100.00;102229.50;4992573;28;20034;-47
2023/08/20 08:48:32;;;;;;;5.45;1.73;;;;;;;28.72;100.00;102227.88;4992580;28;20057;-47
2023/08/20 08:50:58;;;;;;;7.55;2.30;;;;;;;28.43;100.00;102203.28;4992442;28;20096;-44
2023/08/20 08:53:24;;;;;;;7.90;2.05;;;;;;;28.60;100.00;102180.16;4992052;28;20129;-45
2023/08/20 08:55:50;;;;;;;6.18;1.88;;;;;;;29.06;100.00;102241.19;4974216;28;20055;-46
2023/08/20 08:58:15;;;;;;;8.80;2.70;;;;;;;28.94;100.00;102214.19;4992456;28;20122;-51
2023/08/20 09:00:41;;;;;;;5.18;1.48;;;;;;;28.70;100.00;102188.38;4992362;28;20030;-48
2023/08/20 09:03:06;;;;;;;4.00;1.45;;;;;;;28.75;100.00;102183.44;4992019;28;20042;-46
2023/08/20 09:05:31;;;;;;;6.78;1.83;;;;;;;29.06;100.00;102250.19;4974875;28;20568;-47
2023/08/20 09:07:57;;;;;;;5.38;1.60;;;;;;;28.68;100.00;102193.06;4992274;28;20417;-47
2023/08/20 09:10:26;;;;;;;6.50;1.95;;;;;;;29.04;100.00;102189.84;4992242;28;20097;-47
2023/08/20 09:12:54;;;;;;;5.95;1.80;;;;;;;29.42;100.00;102230.66;4992212;28;20128;-46
2023/08/20 09:15:19;;;;;;;5.65;1.90;;;;;;;29.71;100.00;102248.91;4991900;28;20035;-47
2023/08/20 09:17:46;;;;;;;6.57;1.65;;;;;;;30.16;100.00;102251.97;4974452;28;20117;-52
2023/08/20 09:20:11;;;;;;;5.25;2.17;;;;;;;30.26;100.00;102250.97;4992437;28;20038;-48
2023/08/20 09:22:40;;;;;;;3.65;1.60;;;;;;;30.10;100.00;102212.66;4991378;28;20037;-51
2023/08/20 09:25:05;;;;;;;6.65;1.92;;;;;;;30.13;100.00;102237.69;4974453;28;20109;-47
2023/08/20 09:27:38;;;;;;;5.07;1.85;;;;;;;30.20;100.00;102240.69;4992062;28;20090;-48
2023/08/20 09:30:04;;;;;;;8.23;2.50;;;;;;;29.94;100.00;102196.09;4992103;28;20406;-47
2023/08/20 09:32:30;;;;;;;7.78;1.88;;;;;;;30.26;100.00;102188.50;4991717;28;20034;-45
2023/08/20 09:34:56;;;;;;;3.92;1.85;;;;;;;30.78;100.00;102260.53;4991799;28;20116;-47
2023/08/20 09:37:24;;;;;;;7.85;2.55;;;;;;;31.00;100.00;102229.47;4992259;28;20036;-47
2023/08/20 09:39:50;;;;;;;5.63;2.40;;;;;;;31.09;100.00;102256.59;4992327;28;20038;-48
2023/08/20 09:42:16;;;;;;;4.32;2.67;;;;;;;30.68;100.00;102200.75;4978068;28;20100;-55
2023/08/20 09:44:45;;;;;;;3.97;1.83;;;;;;;30.79;100.00;102201.59;4978011;28;20402;-50
2023/08/20 09:47:14;;;;;;;7.10;1.50;;;;;;;30.81;100.00;102205.88;4986749;28;20034;-51
2023/08/20 09:49:44;;;;;;;6.50;1.88;;;;;;;31.10;100.00;102257.47;5010846;28;20072;-48
2023/08/20 09:52:12;;;;;;;6.93;1.50;;;;;;;30.94;100.00;102211.84;5014348;28;20037;-47
2023/08/20 09:55:13;;;;;;;5.03;1.75;;;;;;;30.81;100.00;102208.59;5015101;28;20482;-50
2023/08/20 09:57:39;;;;;;;5.63;1.83;;;;;;;31.34;100.00;102265.97;5014346;28;20497;-45
2023/08/20 10:00:09;;;;;;;2.60;1.30;;;;;;;31.39;100.00;102274.53;5014815;28;20029;-50
2023/08/20 10:02:35;;;;;;;3.65;1.50;;;;;;;31.45;100.00;102267.63;5014722;28;20030;-47
2023/08/20 10:05:02;;;;;;;4.20;1.67;;;;;;;31.61;100.00;102214.25;5014352;28;20377;-47
2023/08/20 10:07:31;;;;;;;5.78;1.80;;;;;;;31.54;100.00;102201.44;5007888;28;20034;-46
2023/08/20 10:10:00;;;;;;;6.45;1.85;;;;;;;32.18;100.00;102282.97;4977837;28;20402;-48
2023/08/20 10:12:25;;;;;;;5.05;1.42;;;;;;;32.28;100.00;102262.81;4978037;28;20034;-49
2023/08/20 10:14:51;;;;;;;7.65;1.50;;;;;;;32.27;100.00;102263.84;4994744;28;20023;-50
2023/08/20 10:17:17;;;;;;;5.70;1.58;;;;;;;32.50;100.00;102283.28;4993707;28;20051;-51
2023/08/20 10:19:43;;;;;;;5.45;1.60;;;;;;;32.22;100.00;102259.88;4983519;28;20527;-48
2023/08/20 10:22:08;;;;;;;7.35;1.77;;;;;;;32.11;100.00;102250.03;5012778;28;20042;-52
2023/08/20 10:24:51;;;;;;;4.47;1.40;;;;;;;31.98;100.00;102218.75;5007814;28;20042;-49
2023/08/20 10:27:26;;;;;;;3.60;1.80;;;;;;;32.62;100.00;102271.16;4994396;28;20056;-48
2023/08/20 10:29:54;;;;;;;10.82;2.13;;;;;;;32.68;100.00;102212.41;5005992;28;20386;-52
2023/08/20 10:32:21;;;;;;;7.05;1.80;;;;;;;33.23;100.00;102221.94;5003647;28;20357;-47
2023/08/20 10:34:53;;;;;;;3.65;1.70;;;;;;;32.91;100.00;102219.00;5012491;28;20125;-50
2023/08/20 10:37:28;;;;;;;7.03;1.73;;;;;;;32.79;100.00;102255.75;5008889;28;20034;-48
2023/08/20 10:39:57;;;;;;;6.72;2.00;;;;;;;32.61;100.00;102208.59;4977652;28;20042;-50
2023/08/20 10:42:26;;;;;;;6.30;1.80;;;;;;;32.92;100.00;102217.16;5007755;28;20444;-48
2023/08/20 10:45:10;;;;;;;7.32;1.80;;;;;;;32.73;100.00;102164.53;5012300;28;20030;-50
2023/08/20 10:47:47;;;;;;;3.80;1.60;;;;;;;33.00;100.00;102201.69;4994391;28;20045;-51
2023/08/20 10:50:16;;;;;;;4.78;1.85;;;;;;;33.82;100.00;102272.88;4989204;28;20034;-49
2023/08/20 10:52:47;;;;;;;6.93;1.73;;;;;;;33.36;100.00;102210.56;4960028;28;20030;-48
2023/08/20 10:55:13;;;;;;;6.03;1.75;;;;;;;33.27;100.00;102206.97;4997226;28;20034;-46
2023/08/20 10:57:38;;;;;;;5.80;2.05;;;;;;;33.87;100.00;102254.09;5013499;28;20045;-44
2023/08/20 11:00:14;;;;;;;7.32;1.85;;;;;;;34.04;100.00;102271.38;4995692;28;20044;-47
2023/08/20 11:02:40;;;;;;;6.72;2.00;;;;;;;34.46;98.15;102276.75;5013380;28;20038;-49
2023/08/20 11:05:17;;;;;;;8.65;1.95;;;;;;;33.99;100.00;102267.44;4994578;28;20428;-48
2023/08/20 11:07:43;;;;;;;6.85;2.47;;;;;;;33.28;100.00;102267.81;4996006;28;20038;-47
2023/08/20 11:10:10;;;;;;;12.75;1.88;;;;;;;33.07;100.00;102213.66;4994237;28;20045;-46
2023/08/20 11:12:35;;;;;;;7.07;2.13;;;;;;;33.91;100.00;102271.88;5013171;28;20046;-47